Historyczne dane pomiarowe

Dodano dane terminowe – wersja testowa.

Dane z okresu 1951-2019

Wersja bazy: 1.34 [2019-03-16, lista zmian], aktualizacja planowana na 2019-04-15

Dane meteo z obszaru Polski uzyskane na podstawie danych udostępnionych przez Instytut Meteorologii i Gospodarki Wodnej – Państwowy Instytut Badawczy.

 

Wybierz Datę:    

       

TemperaturaWilgotnośćWiatrCiśnienieOpadyŚniegCzas trwania zjawisk
 Stacja t tx tn tng RH VA  wxwx mslp ppp RRR   cm mm wxwxwxwxwxwxwx
1956-11-09 -4.1 -2.5 -7.1- 77.5- 4.3 2.0---- 0.0-- 8---------
1956-11-08 -3.8 -1.8 -6.8- 69.0- 3.7 1.3---- 0.0-- 9---------
1956-11-07 -2.6 0.1 -4.3- 77.5- 3.0 4.7---- 0.0-- 10---------
1956-11-06 0.1 1.6 -0.8- 88.3- 5.3 2.3---- 1.6-- 4---------
1956-11-05 1.3 5.0 -1.1- 90.5- 8.0 3.7---- 5.1------------
1956-11-04 0.0 3.9 -1.8- 74.0- 1.3 2.3---- 0.0------------
1956-11-03 0.3 2.6 -2.7- 83.5- 6.7 1.7---- 0.0------------
1956-11-02 0.8 3.4 -0.9- 92.5- 3.0 2.3---- 0.0------------
1956-11-01 1.5 2.6 -2.4- 95.3- 8.0 3.3---- 5.0------------
1956-10-31 -4.0 -1.5 -9.8- 78.0- 3.0 3.3---- 1.6------------
1956-10-30 -3.6 -1.3 -5.7- 84.5- 5.3 4.3---- 0.0------------
1956-10-29 -0.5 5.9 -2.1- 96.0- 8.0 4.7---- 0.2------------
1956-10-28 6.8 8.9 5.3- 94.8- 8.0 8.0---- 16.8------------
1956-10-27 8.3 9.8 6.7- 96.3- 8.0 5.0---- 0.2------------
1956-10-26 8.0 13.0 6.6- 96.8- 8.0 3.0---- 2.4------------
1956-10-25 11.3 13.2 8.8- 86.3- 6.0 2.3---- 0.0------------
1956-10-24 10.9 13.6 8.1- 88.3- 7.0 2.7---- 0.0------------
1956-10-23 10.0 11.0 9.3- 82.0- 8.0 2.3---- 0.0------------
1956-10-22 11.2 13.1 10.3- 78.0- 6.3 2.7---- 0.0------------
1956-10-21 11.6 13.7 6.8- 88.5- 6.3 3.0---- 0.0------------
1956-10-20 8.6 11.1 5.5- 92.3- 8.0 2.0---- 1.1------------
1956-10-19 9.4 12.3 6.8- 95.3- 5.3 3.3---- 0.2------------
1956-10-18 8.4 10.3 4.1- 89.3- 7.0 2.3---- 1.3------------
1956-10-17 5.6 11.6 0.5- 88.5- 0.0 1.0---- 0.0------------
1956-10-16 5.3 9.5 1.4- 87.8- 2.7 2.3---- 0.0------------
1956-10-15 5.6 10.0 3.0- 87.5- 2.0 2.3---- 0.3------------
1956-10-14 7.1 10.2 4.2- 77.5- 4.7 5.7---- 0.0------------
1956-10-13 8.6 10.7 6.6- 90.5- 8.0 5.7---- 36.0------------
1956-10-12 9.4 12.5 8.0- 89.3- 5.7 3.0---- 0.0------------
1956-10-11 9.1 11.0 3.9- 85.3- 6.7 4.0---- 0.0------------
1956-10-10 4.8 8.3 -0.6- 82.0- 3.3 2.7---- 3.1------------
1956-10-09 3.9 7.5 2.1- 91.0- 5.3 3.0---- 1.0------------
1956-10-08 4.2 7.5 2.9- 95.5- 5.3 2.0---- 2.6------------
1956-10-07 6.5 8.3 4.6- 88.8- 7.0 7.3---- 25.6------------
1956-10-06 6.9 9.5 3.9- 93.8- 8.0 5.0---- 49.1------------
1956-10-05 9.4 13.0 6.9- 90.8- 7.0 2.7---- 0.0------------
1956-10-04 9.4 12.2 4.7- 89.5- 8.0 2.0---- 0.0------------
1956-10-03 12.8 17.2 11.0- 87.8- 6.7 4.3---- 0.8------------
1956-10-02 16.0 23.2 9.5- 85.3- 2.7 2.3---- 2.0------------
1956-10-01 13.6 18.1 5.8- 87.5- 4.0 2.7---- 0.6------------
1956-09-30 11.0 17.0 8.3- 85.3- 1.3 3.3---- 0.0------------
1956-09-29 15.3 18.9 12.7- 74.5- 4.7 3.7---- 0.0------------
1956-09-28 14.4 19.8 9.7- 83.8- 3.7 2.7---- 0.0------------
1956-09-27 14.7 21.8 7.5- 74.5- 4.0 2.3---- 0.0------------
1956-09-26 12.9 19.5 4.9- 82.3- 0.7 2.0---- 0.0------------
1956-09-25 10.3 15.1 3.4- 66.5- 0.0 3.3---- 0.0------------
1956-09-24 7.5 12.2 3.9- 74.5- 1.0 3.3---- 0.0------------
1956-09-23 9.3 12.1 5.7- 73.5- 3.3 3.3---- 0.0------------
1956-09-22 10.7 15.3 6.6- 89.5- 4.3 2.3---- 0.0------------
1956-09-21 9.6 15.5 3.5- 83.8- 1.0 1.3---- 0.0------------
1956-09-20 10.0 14.7 3.9- 80.8- 4.3 2.0---- 0.0------------
1956-09-19 9.2 13.8 6.9- 86.0- 2.7 1.0---- 0.0------------
1956-09-18 8.2 12.5 4.8- 84.8- 3.3 3.0---- 0.0------------
1956-09-17 7.8 12.3 4.0- 87.5- 3.7 3.3---- 2.3------------
1956-09-16 9.5 13.9 4.3- 86.0- 7.3 3.0---- 2.0------------
1956-09-15 9.7 15.7 6.3- 85.3- 4.0 2.7---- 0.0------------
1956-09-14 9.3 14.4 6.3- 86.5- 3.7 2.3---- 0.0------------
1956-09-13 10.3 14.6 4.8- 85.5- 3.0 2.7---- 0.0------------
1956-09-12 10.1 13.5 7.0- 93.0- 7.3 2.3---- 7.7------------
1956-09-11 12.5 14.7 9.6- 92.5- 6.3 2.3---- 3.9------------
266.6 ms

 

Źródłem pochodzenia danych jest Instytut Meteorologii i Gospodarki Wodnej – Państwowy Instytut Badawczy. Dane Instytutu Meteorologii i Gospodarki Wodnej – Państwowego Instytutu Badawczego zostały przetworzone.

Dane źródłowe można odnaleźć na stronie https://dane.imgw.pl